createdAt,value
2018-09-18T00:00:16.173Z,0
2018-09-18T00:00:56.587Z,0
2018-09-18T00:01:37.124Z,0
2018-09-18T00:02:17.635Z,0
2018-09-18T00:02:58.039Z,0
2018-09-18T00:03:38.411Z,0
2018-09-18T00:04:18.803Z,0
2018-09-18T00:04:59.270Z,0
2018-09-18T00:05:39.717Z,0
2018-09-18T00:06:20.129Z,0
2018-09-18T00:07:00.510Z,0
2018-09-18T00:07:40.927Z,0
2018-09-18T00:08:21.332Z,0
2018-09-18T00:09:01.691Z,0
2018-09-18T00:09:42.110Z,0
2018-09-18T00:10:22.534Z,0
2018-09-18T00:11:03.006Z,0
2018-09-18T00:11:43.420Z,0
2018-09-18T00:12:23.817Z,0
2018-09-18T00:13:04.230Z,0
2018-09-18T00:13:44.621Z,0
2018-09-18T00:14:25.049Z,0
2018-09-18T00:15:05.468Z,0
2018-09-18T00:15:45.876Z,0
2018-09-18T00:16:26.271Z,0
2018-09-18T00:17:06.691Z,0
2018-09-18T00:17:47.149Z,0
2018-09-18T00:18:27.687Z,0
2018-09-18T00:19:08.006Z,0
2018-09-18T00:19:48.488Z,0
2018-09-18T00:20:28.844Z,0
2018-09-18T00:21:09.275Z,0
2018-09-18T00:21:49.640Z,0
2018-09-18T00:22:30.076Z,0
2018-09-18T00:23:10.487Z,0
2018-09-18T00:23:50.877Z,0
2018-09-18T00:24:31.299Z,0
2018-09-18T00:25:11.704Z,0
2018-09-18T00:25:52.039Z,0
2018-09-18T00:26:32.511Z,0
2018-09-18T00:27:12.882Z,0
2018-09-18T00:27:53.290Z,0
2018-09-18T00:28:33.699Z,0
2018-09-18T00:29:14.144Z,0
2018-09-18T00:29:54.522Z,0
2018-09-18T00:30:34.908Z,0
2018-09-18T00:31:15.344Z,0
2018-09-18T00:31:55.780Z,0
2018-09-18T00:32:36.289Z,0
2018-09-18T00:33:16.697Z,0
2018-09-18T00:33:57.141Z,0
2018-09-18T00:34:37.589Z,0
2018-09-18T00:35:17.997Z,0
2018-09-18T00:35:58.411Z,0
2018-09-18T00:36:38.952Z,0
2018-09-18T00:37:19.296Z,0
2018-09-18T00:37:59.692Z,0
2018-09-18T00:38:40.151Z,0
2018-09-18T00:39:20.542Z,0
2018-09-18T00:40:00.907Z,0
2018-09-18T00:40:41.450Z,0
2018-09-18T00:41:21.799Z,0
2018-09-18T00:42:02.140Z,0
2018-09-18T00:42:42.579Z,0
2018-09-18T00:43:23.007Z,0
2018-09-18T00:44:03.388Z,0
2018-09-18T00:44:43.830Z,0
2018-09-18T00:45:24.265Z,0
2018-09-18T00:46:04.631Z,0
2018-09-18T00:46:45.051Z,0
2018-09-18T00:47:25.427Z,0
2018-09-18T00:48:05.889Z,0
2018-09-18T00:48:46.349Z,0
2018-09-18T00:49:26.665Z,0
2018-09-18T00:50:07.100Z,0
2018-09-18T00:50:47.482Z,0
2018-09-18T00:51:27.879Z,0
2018-09-18T00:52:08.279Z,0
2018-09-18T00:52:48.798Z,0
2018-09-18T00:53:29.274Z,0
2018-09-18T00:54:09.501Z,0
2018-09-18T00:54:49.929Z,0
2018-09-18T00:55:30.389Z,0
2018-09-18T00:56:10.877Z,0
2018-09-18T00:56:51.231Z,0
2018-09-18T00:57:31.619Z,0
2018-09-18T00:58:11.971Z,0
2018-09-18T00:58:52.527Z,0
2018-09-18T00:59:32.867Z,0
2018-09-18T01:00:13.297Z,0
2018-09-18T01:00:53.615Z,0
2018-09-18T01:01:34.056Z,0
2018-09-18T01:02:14.440Z,0
2018-09-18T01:02:55.042Z,0
2018-09-18T01:03:35.454Z,0
2018-09-18T01:04:15.808Z,0
2018-09-18T01:04:56.257Z,0
2018-09-18T01:05:36.574Z,0
2018-09-18T01:06:16.984Z,0
2018-09-18T01:06:57.448Z,0
2018-09-18T01:07:37.796Z,0
2018-09-18T01:08:18.301Z,0
2018-09-18T01:08:58.708Z,0
2018-09-18T01:09:39.241Z,0
2018-09-18T01:10:19.523Z,0
2018-09-18T01:10:59.884Z,0
2018-09-18T01:11:40.421Z,0
2018-09-18T01:12:20.728Z,0
2018-09-18T01:13:01.701Z,0
2018-09-18T01:13:42.121Z,0
2018-09-18T01:14:22.687Z,0
2018-09-18T01:15:03.122Z,0
2018-09-18T01:15:43.489Z,0
2018-09-18T01:16:23.832Z,0
2018-09-18T01:17:04.271Z,0
2018-09-18T01:17:44.678Z,0
2018-09-18T01:18:25.124Z,0
2018-09-18T01:19:05.544Z,0
2018-09-18T01:19:46.078Z,0
2018-09-18T01:20:26.380Z,0
2018-09-18T01:21:06.875Z,0
2018-09-18T01:21:47.274Z,0
2018-09-18T01:22:27.818Z,0
2018-09-18T01:23:08.266Z,0
2018-09-18T01:23:48.906Z,0
2018-09-18T01:24:29.423Z,0
2018-09-18T01:25:09.876Z,0
2018-09-18T01:25:50.245Z,0
2018-09-18T01:26:30.848Z,0
2018-09-18T01:27:11.274Z,0
2018-09-18T01:27:51.752Z,0
2018-09-18T01:28:32.118Z,0
2018-09-18T01:29:12.502Z,0
2018-09-18T01:29:52.994Z,0
2018-09-18T01:30:33.335Z,0
2018-09-18T01:31:13.846Z,0
2018-09-18T01:31:54.155Z,0
2018-09-18T01:32:34.569Z,0
2018-09-18T01:33:14.995Z,0
2018-09-18T01:33:55.446Z,0
2018-09-18T01:34:35.770Z,0
2018-09-18T01:35:16.185Z,0
2018-09-18T01:35:56.649Z,0
2018-09-18T01:36:37.048Z,0
2018-09-18T01:37:17.412Z,0
2018-09-18T01:37:57.870Z,0
2018-09-18T01:38:38.290Z,0
2018-09-18T01:39:18.783Z,0
2018-09-18T01:39:59.106Z,0
2018-09-18T01:40:39.529Z,0
2018-09-18T01:41:19.959Z,0
2018-09-18T01:42:00.375Z,0
2018-09-18T01:42:40.918Z,0
2018-09-18T01:43:21.186Z,0
2018-09-18T01:44:01.657Z,0
2018-09-18T01:44:42.870Z,0
2018-09-18T01:45:23.270Z,0
2018-09-18T01:46:03.697Z,0
2018-09-18T01:49:09.093Z,0
2018-09-18T01:49:51.119Z,0
2018-09-18T01:50:31.484Z,0
2018-09-18T01:51:11.873Z,0
2018-09-18T01:51:52.839Z,0
2018-09-18T01:52:33.174Z,0
2018-09-18T01:53:14.301Z,0
2018-09-18T01:53:55.027Z,0
2018-09-18T01:54:35.252Z,0
2018-09-18T01:55:15.565Z,0
2018-09-18T01:55:56.205Z,0
2018-09-18T01:56:36.616Z,0
2018-09-18T01:57:17.161Z,0
2018-09-18T01:57:57.980Z,0
2018-09-18T01:58:38.329Z,0
2018-09-18T01:59:18.711Z,0
2018-09-18T01:59:59.262Z,0
2018-09-18T02:00:39.857Z,0
2018-09-18T02:01:20.288Z,0
2018-09-18T02:02:00.902Z,0
2018-09-18T02:02:41.318Z,0
2018-09-18T02:03:21.771Z,0
2018-09-18T02:04:02.246Z,0
2018-09-18T02:04:43.397Z,0
2018-09-18T02:05:23.709Z,0
2018-09-18T02:06:04.152Z,0
2018-09-18T02:06:46.039Z,0
2018-09-18T02:07:26.512Z,0
2018-09-18T02:08:06.803Z,0
2018-09-18T02:08:47.429Z,0
2018-09-18T02:09:27.809Z,0
2018-09-18T02:10:08.234Z,0
2018-09-18T02:10:48.578Z,0
2018-09-18T02:11:29.063Z,0
2018-09-18T02:12:16.666Z,0
2018-09-18T02:15:58.285Z,0
2018-09-18T02:16:38.137Z,0
2018-09-18T02:17:18.650Z,0
2018-09-18T02:17:58.952Z,0
2018-09-18T02:18:40.011Z,0
2018-09-18T02:19:20.254Z,0
2018-09-18T02:20:01.135Z,0
2018-09-18T02:20:42.010Z,0
2018-09-18T02:21:22.429Z,0
2018-09-18T02:22:04.137Z,0
2018-09-18T02:22:43.587Z,0
2018-09-18T02:23:24.081Z,0
2018-09-18T02:24:04.563Z,0
2018-09-18T02:24:44.977Z,0
2018-09-18T02:25:25.392Z,0
2018-09-18T02:26:05.797Z,0
2018-09-18T02:26:46.789Z,0
2018-09-18T02:27:27.579Z,0
2018-09-18T02:28:08.017Z,0
2018-09-18T02:28:48.564Z,0
2018-09-18T02:29:29.423Z,0
2018-09-18T02:30:10.055Z,0
2018-09-18T02:30:50.507Z,0
2018-09-18T02:31:31.123Z,0
2018-09-18T02:32:11.514Z,0
2018-09-18T02:32:52.229Z,0
2018-09-18T02:33:33.124Z,0
2018-09-18T02:34:13.375Z,0
2018-09-18T02:34:53.772Z,0
2018-09-18T02:35:34.164Z,0
2018-09-18T02:36:14.911Z,0
2018-09-18T02:36:55.277Z,0
2018-09-18T02:37:35.799Z,0
2018-09-18T02:38:16.138Z,0
2018-09-18T02:38:56.667Z,0
2018-09-18T02:39:37.296Z,0
2018-09-18T02:40:17.818Z,0
2018-09-18T02:40:58.318Z,0
2018-09-18T02:41:38.772Z,0
2018-09-18T02:42:19.125Z,0
2018-09-18T02:42:59.544Z,0
2018-09-18T02:43:39.955Z,0
2018-09-18T02:44:20.853Z,0
2018-09-18T02:45:02.759Z,0
2018-09-18T02:45:46.024Z,0
2018-09-18T02:46:27.209Z,0
2018-09-18T02:47:08.848Z,0
2018-09-18T02:47:49.357Z,0
2018-09-18T02:48:30.215Z,0
2018-09-18T02:49:10.637Z,0
2018-09-18T02:49:51.948Z,0
2018-09-18T02:50:32.055Z,0
2018-09-18T02:51:12.605Z,0
2018-09-18T02:51:53.696Z,0
2018-09-18T02:52:34.276Z,0
2018-09-18T02:53:15.156Z,0
2018-09-18T02:53:56.427Z,0
2018-09-18T02:54:36.986Z,0
2018-09-18T02:55:17.647Z,0
2018-09-18T02:55:57.987Z,0
2018-09-18T02:56:38.340Z,0
2018-09-18T02:57:19.269Z,0
2018-09-18T02:58:00.530Z,0
2018-09-18T02:58:42.164Z,0
2018-09-18T02:59:21.561Z,0
2018-09-18T03:00:05.776Z,0
2018-09-18T03:00:46.440Z,0
2018-09-18T03:01:28.830Z,0
2018-09-18T03:02:11.216Z,0
2018-09-18T03:02:52.012Z,0
2018-09-18T03:03:33.178Z,0
2018-09-18T03:04:14.379Z,0
2018-09-18T03:11:32.398Z,0
2018-09-18T03:12:12.365Z,0
2018-09-18T03:12:51.909Z,0
2018-09-18T03:13:34.462Z,0
2018-09-18T03:14:14.953Z,0
2018-09-18T03:14:55.737Z,0
2018-09-18T03:15:36.469Z,0
2018-09-18T03:16:16.876Z,0
2018-09-18T03:16:57.602Z,0
2018-09-18T03:17:38.513Z,0
2018-09-18T03:18:19.156Z,0
2018-09-18T03:19:00.909Z,0
2018-09-18T03:25:39.293Z,0
2018-09-18T03:26:19.888Z,0
2018-09-18T03:27:00.510Z,0
2018-09-18T03:27:41.701Z,0
2018-09-18T03:28:25.184Z,0
2018-09-18T03:29:05.589Z,0
2018-09-18T03:29:46.201Z,0
2018-09-18T03:30:26.690Z,0
2018-09-18T03:31:08.265Z,0
2018-09-18T03:31:48.876Z,0
2018-09-18T03:32:29.497Z,0
2018-09-18T03:33:10.260Z,0
2018-09-18T03:33:51.141Z,0
2018-09-18T03:34:34.841Z,0
2018-09-18T03:35:14.973Z,0
2018-09-18T03:35:55.440Z,0
2018-09-18T03:36:36.274Z,0
2018-09-18T03:37:16.996Z,0
2018-09-18T03:37:57.589Z,0
2018-09-18T03:38:38.375Z,0
2018-09-18T03:39:18.798Z,0
2018-09-18T03:39:59.364Z,0
2018-09-18T03:40:41.724Z,0
2018-09-18T03:41:21.890Z,0
2018-09-18T03:42:03.462Z,0
2018-09-18T03:42:43.889Z,0
2018-09-18T03:43:25.891Z,0
2018-09-18T03:44:07.253Z,0
2018-09-18T03:52:42.276Z,0
2018-09-18T03:53:22.561Z,0
2018-09-18T03:54:03.380Z,0
2018-09-18T03:54:44.212Z,0
2018-09-18T03:55:25.677Z,0
2018-09-18T03:56:06.197Z,0
2018-09-18T03:56:46.677Z,0
2018-09-18T03:57:27.200Z,0
2018-09-18T03:58:08.874Z,0
2018-09-18T03:58:49.251Z,0
2018-09-18T03:59:29.729Z,0
2018-09-18T04:00:12.968Z,0
2018-09-18T04:00:55.127Z,0
2018-09-18T04:01:34.364Z,0
2018-09-18T04:02:14.836Z,0
2018-09-18T04:02:55.396Z,0
2018-09-18T04:03:36.042Z,0
2018-09-18T04:04:16.533Z,0
2018-09-18T04:04:57.180Z,0
2018-09-18T04:05:37.802Z,0
2018-09-18T04:06:18.307Z,0
2018-09-18T04:06:59.045Z,0
2018-09-18T04:07:39.658Z,0
2018-09-18T04:08:20.558Z,0
2018-09-18T04:09:01.089Z,0
2018-09-18T04:09:42.885Z,0
2018-09-18T04:10:23.283Z,0
2018-09-18T04:11:04.001Z,0
2018-09-18T04:11:45.345Z,0
2018-09-18T04:12:26.202Z,0
2018-09-18T04:13:06.894Z,0
2018-09-18T04:13:47.631Z,0
2018-09-18T04:14:28.639Z,0
2018-09-18T04:15:10.278Z,0
2018-09-18T04:15:50.906Z,0
2018-09-18T04:16:32.927Z,0
2018-09-18T04:17:13.923Z,0
2018-09-18T04:17:55.279Z,0
2018-09-18T04:18:35.114Z,0
2018-09-18T04:19:15.507Z,0
2018-09-18T04:19:56.103Z,0
2018-09-18T04:20:36.720Z,0
2018-09-18T04:21:17.393Z,0
2018-09-18T04:21:57.809Z,0
2018-09-18T04:22:38.252Z,0
2018-09-18T04:23:18.637Z,0
2018-09-18T04:23:59.941Z,0
2018-09-18T04:24:41.118Z,0
2018-09-18T04:25:21.211Z,0
2018-09-18T04:26:01.826Z,0
2018-09-18T04:26:42.983Z,0
2018-09-18T04:27:23.439Z,0
2018-09-18T05:07:16.836Z,60
2018-09-18T05:08:08.763Z,68
2018-09-18T05:09:01.754Z,72
2018-09-18T05:09:54.456Z,76
2018-09-18T05:10:47.305Z,84
2018-09-18T05:11:39.437Z,92
2018-09-18T05:18:40.590Z,188
2018-09-18T05:19:36.235Z,212
2018-09-18T05:20:28.725Z,240
2018-09-18T05:21:26.520Z,276
2018-09-18T05:22:19.290Z,312
2018-09-18T05:23:14.820Z,348
2018-09-18T05:24:07.640Z,404
2018-09-18T05:25:00.245Z,448
2018-09-18T05:25:52.498Z,508
2018-09-18T05:26:45.570Z,564
2018-09-18T05:27:38.733Z,640
2018-09-18T05:28:31.235Z,712
2018-09-18T05:29:23.320Z,788
2018-09-18T05:30:15.566Z,876
2018-09-18T05:31:19.160Z,996
2018-09-18T05:32:12.189Z,1100
2018-09-18T05:33:11.635Z,1224
2018-09-18T05:34:05.064Z,1384
2018-09-18T05:35:00.888Z,1496
2018-09-18T05:35:41.279Z,1628
2018-09-18T05:36:21.555Z,1752
2018-09-18T05:37:02.232Z,1940
2018-09-18T05:37:42.646Z,2204
2018-09-18T05:38:23.118Z,2408
2018-09-18T05:39:03.540Z,2604
2018-09-18T05:39:45.387Z,2832
2018-09-18T05:40:25.919Z,3000
2018-09-18T05:41:06.270Z,3192
2018-09-18T05:41:46.815Z,3248
2018-09-18T05:42:27.194Z,3312
2018-09-18T05:43:09.368Z,3356
2018-09-18T05:43:49.766Z,3440
2018-09-18T05:44:35.640Z,3548
2018-09-18T05:45:16.075Z,3612
2018-09-18T05:45:56.429Z,3628
2018-09-18T05:46:37.006Z,3652
2018-09-18T05:47:17.325Z,3660
2018-09-18T05:47:57.730Z,3648
2018-09-18T05:48:42.731Z,3644
2018-09-18T05:49:28.670Z,3660
2018-09-18T05:50:17.600Z,3788
2018-09-18T05:51:03.034Z,3916
2018-09-18T05:51:43.103Z,3268
2018-09-18T05:52:23.536Z,3540
2018-09-18T05:53:04.034Z,4248
2018-09-18T05:53:44.465Z,4184
2018-09-18T05:54:25.690Z,4380
2018-09-18T05:55:05.590Z,4536
2018-09-18T05:55:45.847Z,4664
2018-09-18T05:56:26.229Z,4828
2018-09-18T05:57:06.786Z,5052
2018-09-18T05:57:47.205Z,5216
2018-09-18T05:58:27.600Z,5316
2018-09-18T05:59:08.129Z,5496
2018-09-18T05:59:48.458Z,5652
2018-09-18T06:00:30.076Z,5772
2018-09-18T06:01:10.561Z,5824
2018-09-18T06:01:50.951Z,5900
2018-09-18T06:02:31.426Z,6024
2018-09-18T06:05:02.107Z,6260
2018-09-18T06:06:00.021Z,6536
2018-09-18T06:06:54.854Z,6688
2018-09-18T06:07:47.570Z,6700
2018-09-18T06:08:47.725Z,6708
2018-09-18T06:09:39.977Z,6820
2018-09-18T06:10:32.720Z,6844
2018-09-18T06:11:25.003Z,6864
2018-09-18T06:12:22.078Z,7056
2018-09-18T06:13:18.063Z,7164
2018-09-18T06:14:12.497Z,7036
2018-09-18T06:15:06.173Z,6960
2018-09-18T06:16:07.098Z,7632
2018-09-18T06:17:06.589Z,8048
2018-09-18T06:18:22.191Z,8200
2018-09-18T06:21:02.049Z,8360
2018-09-18T06:22:02.347Z,8428
2018-09-18T06:23:02.484Z,8704
2018-09-18T06:23:57.245Z,8544
2018-09-18T06:24:56.000Z,8532
2018-09-18T06:26:04.580Z,8820
2018-09-18T06:29:44.920Z,9236
2018-09-18T06:30:37.299Z,9456
2018-09-18T06:33:18.322Z,10296
2018-09-18T06:34:20.813Z,10356
2018-09-18T06:35:27.836Z,10576
2018-09-18T06:44:33.124Z,10784
2018-09-18T06:45:36.099Z,11200
2018-09-18T06:53:32.370Z,12032
2018-09-18T06:54:35.051Z,11872
2018-09-18T06:55:36.359Z,11608
2018-09-18T06:56:37.916Z,10816
2018-09-18T06:57:37.984Z,11076
2018-09-18T06:58:38.399Z,11484
2018-09-18T06:59:38.080Z,11088
2018-09-18T07:00:43.120Z,10708
2018-09-18T07:01:45.504Z,9808
2018-09-18T07:02:44.280Z,8968
2018-09-18T07:03:48.941Z,8556
2018-09-18T07:04:49.850Z,8120
2018-09-18T07:05:52.815Z,7948
2018-09-18T07:07:08.878Z,7824
2018-09-18T07:08:24.548Z,7812
2018-09-18T07:09:16.962Z,7812
2018-09-18T07:10:10.776Z,7792
2018-09-18T07:13:13.325Z,8184
2018-09-18T07:14:06.611Z,8020
2018-09-18T07:15:00.966Z,7624
2018-09-18T07:15:53.369Z,7276
2018-09-18T07:16:47.430Z,7064
2018-09-18T07:17:48.728Z,6832
2018-09-18T07:18:43.110Z,6652
2018-09-18T07:19:37.588Z,6576
2018-09-18T07:20:37.068Z,6564
2018-09-18T07:21:40.784Z,6372
2018-09-18T07:22:39.915Z,6356
2018-09-18T07:23:33.098Z,6536
2018-09-18T07:24:28.803Z,6544
2018-09-18T07:25:22.882Z,6492
2018-09-18T07:26:17.951Z,6592
2018-09-18T07:30:26.242Z,5584
2018-09-18T07:31:22.377Z,5052
2018-09-18T07:32:16.574Z,4720
2018-09-18T07:33:10.877Z,4492
2018-09-18T07:34:05.047Z,4456
2018-09-18T07:34:58.718Z,4476
2018-09-18T07:35:52.746Z,4308
2018-09-18T07:36:45.239Z,3916
2018-09-18T07:39:11.148Z,3448
2018-09-18T07:40:06.236Z,3336
2018-09-18T07:41:05.698Z,3204
2018-09-18T07:42:01.908Z,3060
2018-09-18T07:42:56.886Z,2936
2018-09-18T07:43:49.677Z,2832
2018-09-18T07:44:42.153Z,2760
2018-09-18T07:45:34.515Z,2688
2018-09-18T07:46:27.780Z,2584
2018-09-18T07:47:23.135Z,2484
2018-09-18T07:48:14.934Z,2448
2018-09-18T07:49:15.996Z,2420
2018-09-18T07:56:43.576Z,2272
2018-09-18T07:57:43.868Z,2268
2018-09-18T07:58:24.543Z,2256
2018-09-18T07:59:06.227Z,2256
2018-09-18T07:59:47.170Z,2236
2018-09-18T08:02:40.386Z,2196
2018-09-18T08:03:35.309Z,2192
2018-09-18T08:04:30.285Z,2188
2018-09-18T08:05:30.241Z,2180
2018-09-18T08:06:25.222Z,2172
2018-09-18T08:08:46.601Z,2164
2018-09-18T08:09:50.676Z,2156
2018-09-18T08:10:48.168Z,2152
2018-09-18T08:11:58.385Z,2148
2018-09-18T08:12:52.381Z,2132
2018-09-18T08:13:52.535Z,2124
2018-09-18T08:14:48.248Z,2124
2018-09-18T08:15:45.006Z,2120
2018-09-18T08:16:40.373Z,2112
2018-09-18T08:17:39.705Z,2108
2018-09-18T08:20:45.969Z,2084
2018-09-18T08:21:44.141Z,2084
2018-09-18T08:22:40.842Z,2072
2018-09-18T08:25:04.466Z,2060
2018-09-18T08:25:45.424Z,2060
2018-09-18T08:26:26.135Z,2068
2018-09-18T08:27:07.399Z,2056
2018-09-18T08:27:47.471Z,2052
2018-09-18T08:28:30.190Z,2048
2018-09-18T08:29:11.022Z,2048
2018-09-18T08:29:52.289Z,2036
2018-09-18T08:30:33.304Z,2040
2018-09-18T08:31:14.368Z,2032
2018-09-18T08:31:54.574Z,2032
2018-09-18T08:32:35.302Z,2032
2018-09-18T08:33:17.994Z,2032
2018-09-18T08:34:00.410Z,2028
2018-09-18T08:34:42.513Z,2024
2018-09-18T08:35:22.338Z,2028
2018-09-18T08:36:05.704Z,2024
2018-09-18T08:36:47.934Z,2020
2018-09-18T08:37:27.885Z,2016
2018-09-18T08:38:09.056Z,2020
2018-09-18T08:38:49.990Z,2012
2018-09-18T08:39:30.898Z,2012
2018-09-18T08:40:15.426Z,2008
2018-09-18T08:40:57.465Z,2008
2018-09-18T08:41:53.040Z,2004
2018-09-18T08:42:34.249Z,2000
2018-09-18T08:43:15.669Z,2000
2018-09-18T08:43:57.726Z,2000
2018-09-18T08:44:37.791Z,1996
2018-09-18T08:45:18.313Z,1992
2018-09-18T08:45:59.762Z,1988
2018-09-18T08:46:41.424Z,1980
2018-09-18T08:47:22.396Z,1976
2018-09-18T08:48:03.877Z,1980
2018-09-18T08:48:47.911Z,1972
2018-09-18T08:49:28.938Z,1964
2018-09-18T08:50:09.837Z,1964
2018-09-18T08:50:52.043Z,1960
2018-09-18T08:51:33.146Z,1948
2018-09-18T08:52:14.571Z,1952
2018-09-18T08:52:57.031Z,1952
2018-09-18T08:53:38.915Z,1944
2018-09-18T08:54:19.582Z,1940
2018-09-18T08:55:01.440Z,1940
2018-09-18T08:55:42.048Z,1932
2018-09-18T08:56:23.223Z,1924
2018-09-18T08:57:05.800Z,1928
2018-09-18T08:57:47.631Z,1924
2018-09-18T08:58:27.932Z,1920
2018-09-18T08:59:09.819Z,1916
2018-09-18T08:59:50.919Z,1912
2018-09-18T09:00:31.474Z,1912
2018-09-18T09:01:11.959Z,1908
2018-09-18T09:01:54.430Z,1904
2018-09-18T09:02:34.137Z,1908
2018-09-18T09:03:15.074Z,1904
2018-09-18T09:03:59.097Z,1904
2018-09-18T09:04:39.436Z,1900
2018-09-18T09:05:19.498Z,1896
2018-09-18T09:05:59.625Z,1896
2018-09-18T09:06:40.341Z,1892
2018-09-18T09:07:20.802Z,1888
2018-09-18T09:08:02.757Z,1884
2018-09-18T09:08:45.018Z,1876
2018-09-18T09:09:26.651Z,1872
2018-09-18T09:10:08.015Z,1876
2018-09-18T09:10:49.732Z,1868
2018-09-18T09:11:29.424Z,1864
2018-09-18T09:12:10.923Z,1864
2018-09-18T09:12:51.737Z,1856
2018-09-18T09:13:32.574Z,1860
2018-09-18T09:14:14.464Z,1848
2018-09-18T09:14:55.110Z,1844
2018-09-18T09:15:36.059Z,1844
2018-09-18T09:16:16.637Z,1836
2018-09-18T09:16:58.992Z,1832
2018-09-18T09:17:40.594Z,1836
2018-09-18T09:18:21.649Z,1832
2018-09-18T09:19:02.079Z,1832
2018-09-18T09:19:42.796Z,1836
2018-09-18T09:20:23.309Z,1828
2018-09-18T09:21:06.910Z,1820
2018-09-18T09:21:48.856Z,1820
2018-09-18T09:22:29.144Z,1828
2018-09-18T09:23:10.393Z,1824
2018-09-18T09:23:50.100Z,1820
2018-09-18T09:24:30.510Z,1816
2018-09-18T09:25:11.007Z,1816
2018-09-18T09:25:53.187Z,1812
2018-09-18T09:26:35.230Z,1820
2018-09-18T09:27:15.612Z,1816
2018-09-18T09:27:56.202Z,1816
2018-09-18T09:28:36.636Z,1812
2018-09-18T09:29:17.081Z,1808
2018-09-18T09:29:57.610Z,1800
2018-09-18T09:30:39.174Z,1804
2018-09-18T09:31:19.519Z,1804
2018-09-18T09:32:00.589Z,1800
2018-09-18T09:32:40.572Z,1800
2018-09-18T09:33:21.207Z,1796
2018-09-18T09:34:01.667Z,1792
2018-09-18T09:34:43.420Z,1792
2018-09-18T09:35:23.153Z,1792
2018-09-18T09:36:04.440Z,1792
2018-09-18T09:36:44.428Z,1788
2018-09-18T09:37:25.904Z,1788
2018-09-18T09:38:05.608Z,1784
2018-09-18T09:38:46.401Z,1788
2018-09-18T09:39:27.365Z,1780
2018-09-18T09:40:07.686Z,1780
2018-09-18T09:40:48.513Z,1772
2018-09-18T09:41:29.204Z,1768
2018-09-18T09:42:09.657Z,1772
2018-09-18T09:42:50.302Z,1776
2018-09-18T09:43:31.636Z,1776
2018-09-18T09:44:12.924Z,1772
2018-09-18T09:44:53.771Z,1764
2018-09-18T09:45:34.174Z,1768
2018-09-18T09:46:15.583Z,1764
2018-09-18T09:46:55.969Z,1764
2018-09-18T09:47:36.467Z,1760
2018-09-18T09:48:16.935Z,1760
2018-09-18T09:48:57.414Z,1756
2018-09-18T09:49:37.853Z,1752
2018-09-18T09:50:18.272Z,1760
2018-09-18T09:50:59.008Z,1764
2018-09-18T09:51:39.553Z,1756
2018-09-18T09:52:24.550Z,1756
2018-09-18T09:53:05.291Z,1756
2018-09-18T09:53:45.865Z,1760
2018-09-18T09:54:26.202Z,1752
2018-09-18T09:55:06.667Z,1756
2018-09-18T09:55:47.885Z,1760
2018-09-18T09:56:28.436Z,1752
2018-09-18T09:57:10.454Z,1756
2018-09-18T09:57:51.015Z,1760
2018-09-18T09:58:32.770Z,1760
2018-09-18T09:59:14.654Z,1756
2018-09-18T09:59:55.724Z,1760
2018-09-18T10:00:36.246Z,1760
2018-09-18T10:04:50.617Z,1760
2018-09-18T10:05:35.479Z,1756
2018-09-18T10:06:20.021Z,1764
2018-09-18T10:07:01.990Z,1760
2018-09-18T10:07:54.219Z,1756
2018-09-18T10:08:55.937Z,1756
2018-09-18T10:09:41.763Z,1760
2018-09-18T10:10:22.521Z,1760
2018-09-18T10:11:07.172Z,1752
2018-09-18T10:11:52.055Z,1744
2018-09-18T10:12:42.069Z,1744
2018-09-18T10:13:29.393Z,1744
2018-09-18T10:14:13.397Z,1744
2018-09-18T10:14:58.725Z,1744
2018-09-18T10:15:39.640Z,1740
2018-09-18T10:16:20.169Z,1740
2018-09-18T10:17:00.632Z,1748
2018-09-18T10:17:41.096Z,1748
2018-09-18T10:18:22.223Z,1748
2018-09-18T10:19:03.391Z,1740
2018-09-18T10:19:43.391Z,1740
2018-09-18T10:20:24.004Z,1736
2018-09-18T10:21:04.225Z,1736
2018-09-18T10:21:44.783Z,1732
2018-09-18T10:22:25.494Z,1724
2018-09-18T10:23:05.995Z,1712
2018-09-18T10:23:46.520Z,1692
2018-09-18T10:24:27.269Z,1684
2018-09-18T10:25:09.450Z,1676
2018-09-18T10:25:50.520Z,1680
2018-09-18T10:26:30.734Z,1676
2018-09-18T10:27:13.622Z,1672
2018-09-18T11:07:29.430Z,2056
2018-09-18T11:08:34.123Z,2140
2018-09-18T11:09:40.519Z,2284
2018-09-18T11:10:35.027Z,1908
2018-09-18T11:11:47.502Z,2180
2018-09-18T11:17:04.086Z,1984
2018-09-18T11:18:07.544Z,1996
2018-09-18T11:19:28.881Z,2052
2018-09-18T11:24:05.880Z,1844
2018-09-18T11:24:46.419Z,1840
2018-09-18T11:25:26.121Z,1816
2018-09-18T11:26:07.290Z,1804
2018-09-18T11:26:47.940Z,1812
2018-09-18T11:27:28.978Z,1780
2018-09-18T11:28:10.365Z,1428
2018-09-18T11:28:50.912Z,1604
2018-09-18T11:29:31.759Z,1576
2018-09-18T11:30:11.964Z,1696
2018-09-18T11:30:52.529Z,1696
2018-09-18T11:31:33.124Z,1244
2018-09-18T11:32:14.334Z,1168
2018-09-18T11:32:55.034Z,1680
2018-09-18T11:33:35.071Z,1656
2018-09-18T11:34:16.295Z,1668
2018-09-18T11:34:58.788Z,1692
2018-09-18T11:35:38.280Z,1260
2018-09-18T11:36:19.846Z,1660
2018-09-18T11:37:00.329Z,1668
2018-09-18T11:37:40.188Z,1504
2018-09-18T11:38:20.841Z,1296
2018-09-18T11:39:02.374Z,1256
2018-09-18T11:39:43.832Z,1260
2018-09-18T11:40:23.808Z,1724
2018-09-18T11:41:05.767Z,1852
2018-09-18T11:41:46.233Z,1876
2018-09-18T11:42:28.332Z,1916
2018-09-18T11:43:08.109Z,1948
2018-09-18T11:43:49.331Z,1936
2018-09-18T11:44:30.841Z,1936
2018-09-18T11:45:10.518Z,1920
2018-09-18T11:45:51.205Z,1796
2018-09-18T11:46:31.873Z,1452
2018-09-18T11:47:12.506Z,1416
2018-09-18T11:47:53.343Z,1372
2018-09-18T11:48:35.827Z,1388
2018-09-18T11:49:16.716Z,2000
2018-09-18T11:49:58.901Z,1956
2018-09-18T11:50:39.159Z,2100
2018-09-18T11:51:20.921Z,2108
2018-09-18T11:52:01.371Z,2056
2018-09-18T11:52:41.654Z,2008
2018-09-18T11:53:23.865Z,1972
2018-09-18T11:54:03.296Z,1940
2018-09-18T11:54:44.580Z,1916
2018-09-18T11:55:25.787Z,1868
2018-09-18T11:56:06.412Z,1832
2018-09-18T11:56:47.033Z,1800
2018-09-18T11:58:59.839Z,1736
2018-09-18T11:59:40.201Z,1728
2018-09-18T12:00:20.827Z,1728
2018-09-18T12:01:01.390Z,1712
2018-09-18T12:01:41.849Z,1700
2018-09-18T12:02:22.364Z,1704
2018-09-18T12:03:02.939Z,1720
2018-09-18T12:03:43.519Z,1716
2018-09-18T12:04:25.111Z,1716
2018-09-18T12:05:05.814Z,1720
2018-09-18T12:05:46.170Z,1712
2018-09-18T12:06:25.997Z,1704
2018-09-18T12:07:06.462Z,1712
2018-09-18T12:07:47.183Z,1716
2018-09-18T12:08:27.684Z,1708
2018-09-18T12:09:08.398Z,1696
2018-09-18T12:09:48.941Z,1680
2018-09-18T12:10:29.764Z,1652
2018-09-18T12:11:10.194Z,1636
2018-09-18T12:11:50.722Z,1632
2018-09-18T12:13:48.507Z,1612
2018-09-18T12:14:29.144Z,1608
2018-09-18T12:15:10.301Z,1592
2018-09-18T12:15:50.767Z,1572
2018-09-18T12:16:32.311Z,1564
2018-09-18T12:17:12.905Z,1548
2018-09-18T12:17:54.888Z,1536
2018-09-18T12:18:36.745Z,1540
2018-09-18T12:19:16.623Z,1544
2018-09-18T12:19:57.820Z,1544
2018-09-18T12:20:37.745Z,1496
2018-09-18T12:21:18.580Z,1384
2018-09-18T12:22:00.565Z,1396
2018-09-18T12:22:41.372Z,1088
2018-09-18T12:23:21.921Z,1116
2018-09-18T12:24:02.596Z,1160
2018-09-18T12:24:44.805Z,1176
2018-09-18T12:25:24.261Z,1276
2018-09-18T12:26:04.789Z,1392
2018-09-18T12:26:45.498Z,1248
2018-09-18T12:27:26.173Z,1248
2018-09-18T12:28:06.749Z,1376
2018-09-18T12:28:47.641Z,1236
2018-09-18T12:29:28.180Z,1200
2018-09-18T12:30:08.758Z,1200
2018-09-18T12:30:49.336Z,1476
2018-09-18T12:31:34.262Z,1544
2018-09-18T12:32:14.803Z,1696
2018-09-18T12:32:55.815Z,1640
2018-09-18T12:33:35.506Z,1676
2018-09-18T12:34:16.171Z,1776
2018-09-18T12:34:56.944Z,1808
2018-09-18T12:35:37.995Z,1836
2018-09-18T12:36:18.606Z,1852
2018-09-18T12:36:59.397Z,1848
2018-09-18T12:37:41.252Z,1832
2018-09-18T12:38:35.413Z,1796
2018-09-18T12:39:15.945Z,1764
2018-09-18T12:39:57.798Z,1752
2018-09-18T12:40:38.825Z,1776
2018-09-18T12:41:18.864Z,1812
2018-09-18T12:42:00.484Z,1804
2018-09-18T12:42:42.378Z,1756
2018-09-18T12:43:22.092Z,1692
2018-09-18T12:44:02.778Z,1640
2018-09-18T12:44:58.844Z,1576
2018-09-18T12:45:39.295Z,1564
2018-09-18T12:46:19.954Z,1540
2018-09-18T12:47:01.319Z,1532
2018-09-18T12:47:42.018Z,1524
2018-09-18T12:48:22.472Z,1512
2018-09-18T12:49:05.858Z,1520
2018-09-18T12:49:46.516Z,1528
2018-09-18T12:50:27.148Z,1548
2018-09-18T12:51:07.533Z,1548
2018-09-18T12:51:48.824Z,1544
2018-09-18T12:52:29.324Z,1540
2018-09-18T12:53:09.404Z,1516
2018-09-18T12:53:50.050Z,1504
2018-09-18T12:54:30.715Z,1496
2018-09-18T12:55:12.243Z,1492